createdAt,value
2023-03-20T00:02:22.230Z,6.60
2023-03-20T00:04:50.609Z,7.32
2023-03-20T00:07:18.823Z,7.95
2023-03-20T00:09:49.461Z,7.68
2023-03-20T00:12:25.001Z,8.35
2023-03-20T00:14:53.597Z,7.70
2023-03-20T00:17:22.822Z,8.63
2023-03-20T00:19:51.480Z,7.70
2023-03-20T00:22:19.750Z,8.52
2023-03-20T00:24:49.601Z,8.63
2023-03-20T00:27:19.358Z,8.50
2023-03-20T00:29:47.648Z,9.40
2023-03-20T00:32:16.869Z,9.48
2023-03-20T00:34:45.169Z,9.60
2023-03-20T00:37:13.560Z,9.68
2023-03-20T00:39:42.584Z,10.38
2023-03-20T00:42:21.853Z,11.57
2023-03-20T00:44:54.163Z,10.20
2023-03-20T00:47:25.118Z,10.75
2023-03-20T00:49:56.108Z,10.07
2023-03-20T00:52:25.506Z,11.25
2023-03-20T00:54:53.805Z,10.10
2023-03-20T00:57:26.684Z,10.07
2023-03-20T00:59:59.234Z,10.95
2023-03-20T01:02:31.225Z,11.32
2023-03-20T01:05:00.232Z,10.07
2023-03-20T01:07:28.899Z,10.82
2023-03-20T01:09:57.307Z,11.32
2023-03-20T01:12:27.366Z,10.93
2023-03-20T01:14:58.771Z,9.88
2023-03-20T01:17:29.377Z,10.45
2023-03-20T01:19:57.706Z,10.32
2023-03-20T01:22:26.310Z,11.18
2023-03-20T01:24:54.573Z,10.63
2023-03-20T01:27:23.722Z,9.93
2023-03-20T01:29:53.662Z,9.82
2023-03-20T01:32:21.924Z,9.52
2023-03-20T01:34:50.183Z,9.07
2023-03-20T01:37:27.224Z,8.57
2023-03-20T01:39:57.279Z,8.88
2023-03-20T01:42:26.061Z,9.40
2023-03-20T01:44:56.022Z,9.35
2023-03-20T01:47:27.801Z,8.80
2023-03-20T01:50:32.552Z,8.60
2023-03-20T01:53:11.141Z,9.52
2023-03-20T01:55:42.030Z,9.95
2023-03-20T01:58:17.860Z,9.05
2023-03-20T02:00:50.021Z,9.45
2023-03-20T02:03:19.842Z,9.85
2023-03-20T02:05:49.573Z,10.35
2023-03-20T02:08:25.344Z,10.07
2023-03-20T02:10:54.867Z,10.75
2023-03-20T02:13:24.039Z,9.82
2023-03-20T02:16:14.157Z,10.57
2023-03-20T02:18:47.495Z,10.50
2023-03-20T02:22:08.707Z,11.50
2023-03-20T02:25:25.182Z,10.73
2023-03-20T02:28:36.266Z,10.40
2023-03-20T02:31:47.236Z,10.07
2023-03-20T02:34:57.554Z,10.48
2023-03-20T02:37:48.913Z,10.13
2023-03-20T02:40:31.879Z,10.48
2023-03-20T02:43:11.491Z,11.25
2023-03-20T02:45:49.797Z,10.85
2023-03-20T02:48:31.735Z,11.13
2023-03-20T02:51:06.973Z,9.68
2023-03-20T02:53:50.592Z,10.05
2023-03-20T02:56:27.837Z,9.90
2023-03-20T02:59:09.037Z,9.00
2023-03-20T03:01:42.683Z,9.40
2023-03-20T03:04:17.811Z,8.70
2023-03-20T03:06:51.760Z,8.68
2023-03-20T03:09:25.155Z,9.50
2023-03-20T03:11:58.516Z,9.23
2023-03-20T03:14:36.938Z,9.30
2023-03-20T03:17:07.676Z,9.57
2023-03-20T03:19:39.952Z,9.82
2023-03-20T03:22:08.899Z,8.88
2023-03-20T03:24:44.152Z,9.52
2023-03-20T03:27:21.416Z,9.60
2023-03-20T03:29:56.693Z,8.77
2023-03-20T03:34:58.255Z,10.10
2023-03-20T03:37:42.222Z,10.25
2023-03-20T03:40:33.379Z,10.45
2023-03-20T03:43:07.753Z,12.15
2023-03-20T03:45:41.934Z,11.15
2023-03-20T03:48:16.260Z,11.80
2023-03-20T03:50:49.757Z,11.82
2023-03-20T03:53:23.786Z,11.48
2023-03-20T03:55:59.313Z,12.35
2023-03-20T03:58:33.109Z,12.98
2023-03-20T04:01:03.990Z,12.35
2023-03-20T04:03:37.841Z,13.55
2023-03-20T04:06:10.052Z,13.95
2023-03-20T04:08:38.389Z,13.50
2023-03-20T04:11:08.912Z,13.40
2023-03-20T04:13:37.733Z,14.18
2023-03-20T04:16:07.572Z,14.30
2023-03-20T04:18:36.032Z,13.63
2023-03-20T04:21:06.281Z,14.50
2023-03-20T04:23:34.627Z,14.32
2023-03-20T04:26:03.734Z,14.82
2023-03-20T04:28:35.379Z,15.57
2023-03-20T04:31:04.422Z,15.40
2023-03-20T04:33:32.904Z,15.45
2023-03-20T04:36:01.669Z,15.25
2023-03-20T04:38:30.229Z,14.43
2023-03-20T04:40:58.829Z,16.35
2023-03-20T04:43:27.337Z,17.73
2023-03-20T04:45:57.136Z,15.07
2023-03-20T04:48:27.818Z,15.52
2023-03-20T04:50:56.805Z,16.00
2023-03-20T04:53:27.139Z,14.82
2023-03-20T04:55:55.623Z,15.70
2023-03-20T04:58:23.911Z,15.38
2023-03-20T05:00:52.806Z,16.42
2023-03-20T05:03:24.124Z,16.55
2023-03-20T05:05:53.402Z,15.45
2023-03-20T05:08:21.783Z,16.50
2023-03-20T05:10:50.636Z,16.15
2023-03-20T05:13:19.216Z,16.17
2023-03-20T05:15:47.907Z,15.98
2023-03-20T05:18:16.430Z,16.40
2023-03-20T05:20:46.508Z,15.55
2023-03-20T05:23:15.161Z,15.73
2023-03-20T05:25:43.964Z,17.02
2023-03-20T05:28:12.352Z,15.82
2023-03-20T05:30:41.727Z,16.08
2023-03-20T05:33:10.106Z,15.90
2023-03-20T05:35:38.874Z,16.92
2023-03-20T05:38:09.358Z,16.63
2023-03-20T05:40:37.791Z,16.05
2023-03-20T05:43:06.243Z,14.80
2023-03-20T05:45:34.743Z,14.90
2023-03-20T05:48:03.286Z,14.43
2023-03-20T05:50:32.082Z,15.35
2023-03-20T05:53:01.050Z,15.00
2023-03-20T05:55:31.153Z,15.77
2023-03-20T05:58:00.364Z,16.40
2023-03-20T06:00:29.348Z,17.08
2023-03-20T06:02:57.859Z,15.85
2023-03-20T06:05:26.313Z,16.20
2023-03-20T06:07:54.756Z,15.40
2023-03-20T06:10:23.306Z,15.10
2023-03-20T06:12:53.326Z,15.20
2023-03-20T06:15:22.218Z,15.65
2023-03-20T06:17:50.555Z,15.98
2023-03-20T06:20:20.211Z,14.02
2023-03-20T06:22:49.403Z,13.73
2023-03-20T06:25:18.327Z,14.35
2023-03-20T06:27:48.979Z,13.43
2023-03-20T06:30:19.449Z,14.13
2023-03-20T06:32:59.493Z,14.70
2023-03-20T06:35:31.282Z,13.57
2023-03-20T06:38:00.024Z,14.45
2023-03-20T06:40:28.920Z,13.80
2023-03-20T06:42:57.792Z,13.90
2023-03-20T06:45:28.087Z,14.15
2023-03-20T06:47:56.835Z,13.63
2023-03-20T06:50:25.685Z,13.77
2023-03-20T06:52:54.063Z,14.77
2023-03-20T06:55:22.661Z,13.88
2023-03-20T06:57:51.254Z,13.95
2023-03-20T07:00:21.698Z,15.18
2023-03-20T07:02:53.533Z,14.77
2023-03-20T07:05:23.231Z,14.45
2023-03-20T07:10:37.821Z,14.60
2023-03-20T07:13:10.555Z,13.77
2023-03-20T07:15:45.699Z,13.75
2023-03-20T07:18:21.042Z,14.32
2023-03-20T07:20:50.185Z,14.15
2023-03-20T07:23:19.369Z,13.07
2023-03-20T07:25:48.937Z,13.60
2023-03-20T07:28:17.781Z,14.35
2023-03-20T07:30:46.450Z,13.68
2023-03-20T07:33:15.611Z,13.27
2023-03-20T07:35:46.693Z,13.10
2023-03-20T07:38:15.304Z,13.10
2023-03-20T07:40:43.810Z,13.70
2023-03-20T07:43:12.413Z,11.63
2023-03-20T07:45:40.963Z,12.57
2023-03-20T07:48:09.867Z,12.82
2023-03-20T07:50:38.325Z,11.88
2023-03-20T07:53:08.446Z,11.82
2023-03-20T07:55:37.213Z,11.68
2023-03-20T07:58:06.447Z,11.02
2023-03-20T08:00:34.841Z,10.85
2023-03-20T08:03:04.182Z,11.02
2023-03-20T08:05:32.812Z,11.10
2023-03-20T08:08:01.381Z,10.55
2023-03-20T08:10:31.690Z,10.45
2023-03-20T08:13:00.014Z,9.85
2023-03-20T08:15:28.391Z,9.52
2023-03-20T08:17:58.854Z,10.68
2023-03-20T08:20:27.549Z,10.10
2023-03-20T08:22:55.966Z,9.18
2023-03-20T08:25:24.485Z,9.23
2023-03-20T08:27:54.703Z,9.90
2023-03-20T08:30:23.118Z,9.57
2023-03-20T08:32:51.466Z,9.55
2023-03-20T08:35:32.589Z,9.93
2023-03-20T08:38:02.833Z,10.25
2023-03-20T08:40:32.103Z,10.27
2023-03-20T08:43:01.659Z,9.75
2023-03-20T08:45:29.870Z,8.98
2023-03-20T08:47:58.532Z,10.18
2023-03-20T08:50:28.236Z,10.13
2023-03-20T08:52:56.925Z,9.80
2023-03-20T08:55:25.302Z,9.90
2023-03-20T08:57:57.330Z,9.18
2023-03-20T09:00:27.716Z,10.13
2023-03-20T09:02:56.461Z,9.68
2023-03-20T09:05:25.099Z,10.85
2023-03-20T09:07:53.461Z,8.80
2023-03-20T09:10:21.995Z,8.95
2023-03-20T09:12:50.351Z,8.70
2023-03-20T09:15:18.775Z,9.23
2023-03-20T09:17:48.713Z,9.35
2023-03-20T09:20:17.743Z,8.90
2023-03-20T09:22:46.316Z,8.48
2023-03-20T09:25:15.387Z,8.20
2023-03-20T09:27:43.915Z,8.40
2023-03-20T09:30:15.148Z,9.18
2023-03-20T09:32:43.634Z,8.35
2023-03-20T09:35:13.465Z,7.95
2023-03-20T09:37:41.937Z,7.53
2023-03-20T09:40:21.110Z,7.82
2023-03-20T09:42:58.738Z,8.27
2023-03-20T09:45:46.670Z,7.93
2023-03-20T09:48:22.759Z,7.85
2023-03-20T09:51:04.337Z,7.78
2023-03-20T09:53:37.741Z,7.60
2023-03-20T09:56:11.853Z,8.30
2023-03-20T09:58:45.057Z,8.02
2023-03-20T10:01:17.008Z,7.95
2023-03-20T10:03:52.154Z,7.68
2023-03-20T10:06:22.076Z,8.27
2023-03-20T10:08:52.093Z,8.43
2023-03-20T10:11:48.618Z,6.75
2023-03-20T10:14:27.249Z,7.20
2023-03-20T10:17:14.228Z,7.00
2023-03-20T10:19:47.351Z,6.82
2023-03-20T10:22:25.988Z,8.32
2023-03-20T10:25:02.710Z,7.70
2023-03-20T10:27:39.518Z,7.47
2023-03-20T10:30:27.644Z,8.10
2023-03-20T10:33:11.101Z,7.68
2023-03-20T10:35:48.693Z,7.43
2023-03-20T10:38:38.291Z,7.75
2023-03-20T10:41:15.466Z,7.05
2023-03-20T10:43:47.455Z,8.02
2023-03-20T10:46:20.919Z,7.40
2023-03-20T10:48:53.368Z,8.52
2023-03-20T10:51:29.242Z,8.32
2023-03-20T10:54:05.166Z,7.90
2023-03-20T10:56:41.543Z,8.02
2023-03-20T10:59:24.846Z,8.30
2023-03-20T11:01:53.442Z,9.32
2023-03-20T11:04:22.423Z,10.07
2023-03-20T11:06:59.845Z,9.73
2023-03-20T11:09:31.445Z,10.15
2023-03-20T11:12:02.748Z,10.70
2023-03-20T11:14:37.505Z,12.25
2023-03-20T11:17:07.495Z,13.25
2023-03-20T11:19:38.352Z,12.57
2023-03-20T11:22:21.400Z,13.15
2023-03-20T11:24:55.196Z,13.20
2023-03-20T11:27:28.576Z,15.30
2023-03-20T11:29:59.622Z,12.93
2023-03-20T11:32:32.174Z,13.18
2023-03-20T11:35:24.946Z,14.80
2023-03-20T11:37:55.872Z,14.52
2023-03-20T11:40:32.006Z,14.07
2023-03-20T11:43:11.565Z,15.32
2023-03-20T11:45:43.236Z,16.92
2023-03-20T11:48:21.406Z,15.82
2023-03-20T11:51:03.944Z,17.08
2023-03-20T11:53:36.844Z,16.80
2023-03-20T11:56:12.062Z,18.25
2023-03-20T11:58:52.931Z,17.17
2023-03-20T12:01:23.346Z,18.30
2023-03-20T12:03:55.887Z,17.30
2023-03-20T12:06:27.706Z,18.08
2023-03-20T12:09:02.524Z,19.10
2023-03-20T12:11:48.464Z,17.50
2023-03-20T12:14:32.274Z,18.90
2023-03-20T12:17:35.283Z,18.50
2023-03-20T12:20:13.869Z,18.23
2023-03-20T12:22:54.281Z,17.95
2023-03-20T12:25:27.141Z,19.05
2023-03-20T12:28:08.736Z,17.92
2023-03-20T12:31:02.425Z,16.45
2023-03-20T12:33:43.277Z,15.55
2023-03-20T12:36:17.719Z,15.63
2023-03-20T12:38:46.926Z,15.77
2023-03-20T12:41:25.184Z,16.63
2023-03-20T12:44:25.354Z,16.25
2023-03-20T12:47:05.462Z,16.42
2023-03-20T12:49:44.776Z,16.35
2023-03-20T12:52:24.424Z,16.90
2023-03-20T12:55:33.615Z,17.15
2023-03-20T12:58:21.222Z,17.67
2023-03-20T13:01:04.024Z,16.92
2023-03-20T13:03:50.735Z,17.58
2023-03-20T13:06:27.509Z,18.25
2023-03-20T13:09:31.959Z,18.10
2023-03-20T13:12:09.630Z,17.45
2023-03-20T13:14:46.340Z,17.27
2023-03-20T13:17:26.181Z,18.15
2023-03-20T13:20:21.930Z,17.23
2023-03-20T13:23:11.277Z,18.42
2023-03-20T13:26:04.186Z,18.30
2023-03-20T13:28:42.905Z,17.73
2023-03-20T13:31:27.340Z,17.58
2023-03-20T13:34:07.255Z,17.75
2023-03-20T13:36:57.436Z,16.85
2023-03-20T13:39:34.839Z,16.45
2023-03-20T13:42:07.732Z,17.73
2023-03-20T13:44:37.058Z,18.40
2023-03-20T13:47:11.835Z,17.80
2023-03-20T13:49:50.819Z,17.85
2023-03-20T13:52:23.130Z,17.38
2023-03-20T13:55:14.759Z,16.77
2023-03-20T13:58:07.200Z,16.85
2023-03-20T14:00:45.362Z,17.15
2023-03-20T14:03:23.412Z,16.38
2023-03-20T14:05:53.294Z,15.65
2023-03-20T14:08:36.949Z,15.80
2023-03-20T14:11:16.838Z,14.77
2023-03-20T14:13:49.896Z,15.43
2023-03-20T14:16:20.853Z,14.60
2023-03-20T14:18:51.762Z,15.10
2023-03-20T14:21:25.703Z,14.65
2023-03-20T14:24:04.607Z,14.40
2023-03-20T14:26:38.505Z,15.27
2023-03-20T14:29:33.807Z,14.07
2023-03-20T14:32:52.852Z,14.10
2023-03-20T14:35:28.667Z,14.60
2023-03-20T14:38:37.179Z,14.63
2023-03-20T14:41:16.336Z,14.68
2023-03-20T14:44:02.196Z,14.32
2023-03-20T14:46:42.247Z,14.02
2023-03-20T14:49:44.907Z,13.80
2023-03-20T14:52:37.487Z,15.25
2023-03-20T14:55:35.786Z,13.40
2023-03-20T14:58:07.564Z,13.63
2023-03-20T15:00:47.821Z,13.65
2023-03-20T15:03:19.209Z,14.50
2023-03-20T15:05:49.211Z,13.77
2023-03-20T15:08:25.462Z,13.43
2023-03-20T15:10:58.771Z,14.13
2023-03-20T15:13:31.097Z,14.07
2023-03-20T15:16:07.038Z,14.23
2023-03-20T15:18:41.103Z,14.38
2023-03-20T15:21:18.701Z,13.57
2023-03-20T15:23:48.719Z,15.20
2023-03-20T15:26:25.426Z,14.20
2023-03-20T15:29:02.560Z,14.18
2023-03-20T15:31:33.501Z,14.35
2023-03-20T15:34:04.858Z,14.02
2023-03-20T15:36:37.109Z,14.82
2023-03-20T15:39:15.046Z,14.30
2023-03-20T15:41:51.718Z,14.57
2023-03-20T15:44:24.361Z,13.70
2023-03-20T15:46:57.834Z,14.93
2023-03-20T15:49:27.295Z,14.90
2023-03-20T15:52:04.237Z,15.82
2023-03-20T15:54:34.133Z,16.52
2023-03-20T15:57:05.426Z,16.90
2023-03-20T15:59:35.390Z,18.48
2023-03-20T16:02:04.894Z,16.95
2023-03-20T16:04:35.164Z,16.73
2023-03-20T16:07:04.169Z,17.75
2023-03-20T16:09:45.336Z,16.30
2023-03-20T16:12:18.811Z,17.73
2023-03-20T16:14:50.049Z,17.35
2023-03-20T16:17:21.331Z,17.50
2023-03-20T16:19:49.989Z,17.95
2023-03-20T16:22:25.820Z,18.23
2023-03-20T16:24:59.587Z,17.80
2023-03-20T16:27:34.024Z,20.42
2023-03-20T16:30:08.828Z,18.77
2023-03-20T16:32:41.762Z,19.20
2023-03-20T16:35:19.232Z,19.58
2023-03-20T16:37:56.382Z,19.55
2023-03-20T16:40:33.917Z,19.83
2023-03-20T16:43:14.953Z,20.23
2023-03-20T16:45:46.119Z,20.92
2023-03-20T16:48:32.330Z,20.58
2023-03-20T16:51:17.775Z,20.50
2023-03-20T16:53:48.720Z,20.85
2023-03-20T16:56:26.182Z,21.02
2023-03-20T16:58:57.275Z,21.02
2023-03-20T17:01:29.130Z,21.27
2023-03-20T17:03:59.894Z,22.48
2023-03-20T17:06:45.664Z,23.15
2023-03-20T17:12:03.029Z,20.38
2023-03-20T17:14:34.119Z,21.17
2023-03-20T17:17:02.604Z,21.00
2023-03-20T17:19:34.150Z,21.40
2023-03-20T17:22:05.625Z,20.63
2023-03-20T17:24:34.264Z,21.10
2023-03-20T17:27:02.768Z,22.23
2023-03-20T17:29:32.682Z,22.73
2023-03-20T17:32:01.426Z,23.67
2023-03-20T17:34:30.072Z,24.15
2023-03-20T17:37:01.588Z,24.58
2023-03-20T17:39:30.496Z,25.02
2023-03-20T17:41:58.900Z,24.58
2023-03-20T17:44:28.190Z,25.65
2023-03-20T17:47:01.068Z,25.20
2023-03-20T17:49:30.163Z,25.67
2023-03-20T17:51:58.721Z,26.80
2023-03-20T17:54:28.457Z,26.45
2023-03-20T17:56:58.291Z,28.05
2023-03-20T17:59:30.986Z,27.02
2023-03-20T18:02:00.832Z,26.95
2023-03-20T18:04:32.064Z,27.75
2023-03-20T18:07:03.893Z,28.10
2023-03-20T18:09:33.705Z,29.33
2023-03-20T18:12:02.696Z,27.77
2023-03-20T18:14:31.050Z,27.02
2023-03-20T18:17:01.332Z,26.88
2023-03-20T18:19:31.340Z,26.25
2023-03-20T18:22:01.536Z,26.75
2023-03-20T18:24:30.308Z,26.00
2023-03-20T18:26:59.789Z,26.85
2023-03-20T18:29:29.251Z,25.83
2023-03-20T18:31:58.728Z,25.00
2023-03-20T18:34:29.111Z,25.38
2023-03-20T18:36:57.972Z,26.17
2023-03-20T18:39:28.775Z,25.98
2023-03-20T18:41:57.486Z,26.33
2023-03-20T18:44:25.958Z,26.50
2023-03-20T18:46:54.658Z,26.60
2023-03-20T18:49:23.220Z,30.52
2023-03-20T18:51:54.266Z,29.77
2023-03-20T18:54:22.841Z,27.10
2023-03-20T18:56:52.045Z,26.67
2023-03-20T18:59:21.274Z,26.67
2023-03-20T19:01:54.221Z,26.40
2023-03-20T19:04:23.719Z,25.63
2023-03-20T19:06:54.061Z,24.88
2023-03-20T19:09:22.660Z,25.92
2023-03-20T19:11:51.546Z,24.65
2023-03-20T19:14:20.262Z,23.52
2023-03-20T19:16:49.136Z,23.35
2023-03-20T19:19:17.804Z,24.17
2023-03-20T19:21:46.382Z,24.17
2023-03-20T19:24:18.321Z,23.27
2023-03-20T19:26:46.801Z,22.08
2023-03-20T19:29:15.612Z,21.88
2023-03-20T19:31:44.267Z,22.33
2023-03-20T19:34:38.918Z,20.70
2023-03-20T19:37:01.503Z,21.45
2023-03-20T19:39:32.790Z,20.65
2023-03-20T19:42:15.619Z,19.10
2023-03-20T19:44:50.045Z,19.50
2023-03-20T19:47:18.645Z,19.75
2023-03-20T19:49:47.295Z,19.40
2023-03-20T19:52:28.402Z,20.33
2023-03-20T19:55:03.550Z,19.13
2023-03-20T19:57:33.012Z,19.67
2023-03-20T20:00:47.187Z,19.52
2023-03-20T20:02:50.809Z,19.77
2023-03-20T20:05:28.689Z,20.02
2023-03-20T20:10:50.089Z,18.50
2023-03-20T20:13:21.270Z,20.05
2023-03-20T20:15:51.477Z,20.35
2023-03-20T20:18:21.998Z,20.40
2023-03-20T20:23:41.817Z,20.58
2023-03-20T20:26:11.899Z,21.55
2023-03-20T20:28:40.609Z,21.20
2023-03-20T20:31:09.401Z,22.13
2023-03-20T20:33:38.459Z,23.73
2023-03-20T20:36:57.669Z,23.42
2023-03-20T20:39:00.691Z,23.80
2023-03-20T20:41:31.258Z,23.80
2023-03-20T20:44:17.296Z,23.95
2023-03-20T20:46:46.768Z,22.33
2023-03-20T20:49:19.526Z,26.15
2023-03-20T20:51:48.977Z,23.52
2023-03-20T20:54:17.962Z,21.67
2023-03-20T20:56:47.802Z,21.67
2023-03-20T20:59:16.568Z,22.80
2023-03-20T21:01:45.094Z,22.00
2023-03-20T21:04:15.692Z,24.05
2023-03-20T21:07:08.148Z,23.55
2023-03-20T21:09:33.647Z,23.25
2023-03-20T21:12:08.238Z,24.65
2023-03-20T21:14:37.539Z,24.13
2023-03-20T21:17:06.939Z,23.48
2023-03-20T21:19:40.407Z,23.70
2023-03-20T21:22:12.193Z,24.35
2023-03-20T21:24:41.516Z,24.67
2023-03-20T21:27:17.452Z,24.13
2023-03-20T21:29:48.195Z,25.70
2023-03-20T21:32:19.930Z,24.25
2023-03-20T21:34:49.974Z,24.25
2023-03-20T21:38:22.862Z,23.85
2023-03-20T21:40:12.343Z,23.30
2023-03-20T21:42:43.153Z,23.98
2023-03-20T21:46:13.514Z,24.83
2023-03-20T21:48:42.455Z,23.77
2023-03-20T21:51:39.925Z,23.20
2023-03-20T21:54:46.058Z,22.67
2023-03-20T21:57:04.941Z,21.98
2023-03-20T21:59:55.055Z,22.58
2023-03-20T22:02:19.181Z,23.35
2023-03-20T22:05:34.843Z,21.52
2023-03-20T22:11:24.700Z,21.35
2023-03-20T22:17:06.440Z,25.90
2023-03-20T22:22:34.468Z,24.88
2023-03-20T22:25:20.344Z,24.75
2023-03-20T22:34:09.702Z,25.23
2023-03-20T22:42:24.263Z,23.98
2023-03-20T22:44:59.271Z,23.38
2023-03-20T22:47:14.826Z,23.00
2023-03-20T22:49:44.946Z,24.33
2023-03-20T22:52:29.240Z,23.55
2023-03-20T22:55:00.900Z,23.17
2023-03-20T22:57:42.115Z,22.58
2023-03-20T23:00:17.999Z,23.38
2023-03-20T23:02:47.636Z,24.02
2023-03-20T23:05:20.191Z,24.48
2023-03-20T23:07:48.847Z,23.77
2023-03-20T23:10:17.743Z,23.65
2023-03-20T23:12:46.411Z,23.60
2023-03-20T23:15:15.616Z,23.27
2023-03-20T23:17:47.040Z,23.73
2023-03-20T23:20:21.342Z,23.48
2023-03-20T23:22:50.970Z,22.98
2023-03-20T23:25:36.038Z,22.15
2023-03-20T23:28:07.635Z,21.10
2023-03-20T23:31:07.369Z,20.33
2023-03-20T23:33:24.883Z,19.63
2023-03-20T23:36:12.503Z,21.00
2023-03-20T23:38:46.070Z,21.13
2023-03-20T23:41:15.966Z,21.42
2023-03-20T23:43:45.170Z,21.08
2023-03-20T23:46:13.682Z,20.40
2023-03-20T23:48:42.649Z,20.05
2023-03-20T23:51:12.509Z,20.02
2023-03-20T23:53:41.180Z,20.13
2023-03-20T23:56:13.414Z,20.70
2023-03-20T23:58:51.136Z,19.92
